sensor_id;sensor_type;location;lat;lon;timestamp;P1;durP1;ratioP1;P2;durP2;ratioP2
64907;SDS011;69061;52.236;5.188;2023-04-25T00:00:23;20.52;;;6.93;;
64907;SDS011;69061;52.236;5.188;2023-04-25T00:02:50;17.85;;;6.18;;
64907;SDS011;69061;52.236;5.188;2023-04-25T00:05:16;15.77;;;5.90;;
64907;SDS011;69061;52.236;5.188;2023-04-25T00:07:44;16.35;;;5.68;;
64907;SDS011;69061;52.236;5.188;2023-04-25T00:10:12;22.35;;;6.28;;
64907;SDS011;69061;52.236;5.188;2023-04-25T00:12:39;19.85;;;5.70;;
64907;SDS011;69061;52.236;5.188;2023-04-25T00:15:06;19.98;;;6.68;;
64907;SDS011;69061;52.236;5.188;2023-04-25T00:17:34;15.45;;;5.45;;
64907;SDS011;69061;52.236;5.188;2023-04-25T00:20:03;19.40;;;6.00;;
64907;SDS011;69061;52.236;5.188;2023-04-25T00:22:32;12.55;;;5.95;;
64907;SDS011;69061;52.236;5.188;2023-04-25T00:24:59;20.83;;;5.50;;
64907;SDS011;69061;52.236;5.188;2023-04-25T00:27:27;17.58;;;6.20;;
64907;SDS011;69061;52.236;5.188;2023-04-25T00:29:54;20.58;;;5.60;;
64907;SDS011;69061;52.236;5.188;2023-04-25T00:32:21;15.60;;;6.22;;
64907;SDS011;69061;52.236;5.188;2023-04-25T00:34:47;15.25;;;6.13;;
64907;SDS011;69061;52.236;5.188;2023-04-25T00:37:14;22.15;;;6.82;;
64907;SDS011;69061;52.236;5.188;2023-04-25T00:39:40;19.25;;;6.78;;
64907;SDS011;69061;52.236;5.188;2023-04-25T00:42:07;22.48;;;6.63;;
64907;SDS011;69061;52.236;5.188;2023-04-25T00:44:35;20.42;;;6.63;;
64907;SDS011;69061;52.236;5.188;2023-04-25T00:47:03;17.02;;;6.22;;
64907;SDS011;69061;52.236;5.188;2023-04-25T00:49:30;15.30;;;5.95;;
64907;SDS011;69061;52.236;5.188;2023-04-25T00:51:57;14.52;;;5.93;;
64907;SDS011;69061;52.236;5.188;2023-04-25T00:54:23;14.57;;;5.63;;
64907;SDS011;69061;52.236;5.188;2023-04-25T00:56:50;15.50;;;5.50;;
64907;SDS011;69061;52.236;5.188;2023-04-25T00:59:18;14.77;;;6.50;;
64907;SDS011;69061;52.236;5.188;2023-04-25T01:01:46;20.58;;;6.30;;
64907;SDS011;69061;52.236;5.188;2023-04-25T01:04:13;20.33;;;5.95;;
64907;SDS011;69061;52.236;5.188;2023-04-25T01:06:40;18.40;;;4.95;;
64907;SDS011;69061;52.236;5.188;2023-04-25T01:09:06;19.85;;;6.22;;
64907;SDS011;69061;52.236;5.188;2023-04-25T01:11:33;12.63;;;4.72;;
64907;SDS011;69061;52.236;5.188;2023-04-25T01:14:00;13.05;;;5.30;;
64907;SDS011;69061;52.236;5.188;2023-04-25T01:16:27;22.27;;;5.57;;
64907;SDS011;69061;52.236;5.188;2023-04-25T01:18:55;12.82;;;5.47;;
64907;SDS011;69061;52.236;5.188;2023-04-25T01:21:23;15.18;;;5.05;;
64907;SDS011;69061;52.236;5.188;2023-04-25T01:23:52;16.10;;;5.90;;
64907;SDS011;69061;52.236;5.188;2023-04-25T01:26:20;22.63;;;5.60;;
64907;SDS011;69061;52.236;5.188;2023-04-25T01:28:47;14.65;;;4.80;;
64907;SDS011;69061;52.236;5.188;2023-04-25T01:31:15;14.32;;;5.07;;
64907;SDS011;69061;52.236;5.188;2023-04-25T01:33:42;14.20;;;6.53;;
64907;SDS011;69061;52.236;5.188;2023-04-25T01:36:09;12.38;;;4.93;;
64907;SDS011;69061;52.236;5.188;2023-04-25T01:38:37;16.88;;;5.15;;
64907;SDS011;69061;52.236;5.188;2023-04-25T01:41:05;16.15;;;5.32;;
64907;SDS011;69061;52.236;5.188;2023-04-25T01:43:31;21.33;;;6.65;;
64907;SDS011;69061;52.236;5.188;2023-04-25T01:45:58;16.17;;;5.43;;
64907;SDS011;69061;52.236;5.188;2023-04-25T01:48:25;12.25;;;4.88;;
64907;SDS011;69061;52.236;5.188;2023-04-25T01:50:52;11.40;;;5.22;;
64907;SDS011;69061;52.236;5.188;2023-04-25T01:53:18;11.73;;;5.00;;
64907;SDS011;69061;52.236;5.188;2023-04-25T01:55:46;15.32;;;6.15;;
64907;SDS011;69061;52.236;5.188;2023-04-25T01:58:12;23.88;;;6.00;;
64907;SDS011;69061;52.236;5.188;2023-04-25T02:00:39;12.77;;;5.43;;
64907;SDS011;69061;52.236;5.188;2023-04-25T02:03:06;17.27;;;5.80;;
64907;SDS011;69061;52.236;5.188;2023-04-25T02:05:34;17.17;;;5.18;;
64907;SDS011;69061;52.236;5.188;2023-04-25T02:08:01;14.35;;;4.95;;
64907;SDS011;69061;52.236;5.188;2023-04-25T02:10:28;17.27;;;6.13;;
64907;SDS011;69061;52.236;5.188;2023-04-25T02:12:56;17.33;;;5.22;;
64907;SDS011;69061;52.236;5.188;2023-04-25T02:15:23;11.07;;;5.13;;
64907;SDS011;69061;52.236;5.188;2023-04-25T02:17:49;13.45;;;4.80;;
64907;SDS011;69061;52.236;5.188;2023-04-25T02:20:17;17.08;;;6.47;;
64907;SDS011;69061;52.236;5.188;2023-04-25T02:22:44;15.75;;;5.45;;
64907;SDS011;69061;52.236;5.188;2023-04-25T02:25:11;20.88;;;5.93;;
64907;SDS011;69061;52.236;5.188;2023-04-25T02:27:38;12.38;;;5.28;;
64907;SDS011;69061;52.236;5.188;2023-04-25T02:30:07;20.85;;;6.00;;
64907;SDS011;69061;52.236;5.188;2023-04-25T02:32:34;15.57;;;5.05;;
64907;SDS011;69061;52.236;5.188;2023-04-25T02:35:01;15.82;;;4.70;;
64907;SDS011;69061;52.236;5.188;2023-04-25T02:37:28;16.30;;;5.97;;
64907;SDS011;69061;52.236;5.188;2023-04-25T02:39:55;15.23;;;4.65;;
64907;SDS011;69061;52.236;5.188;2023-04-25T02:42:22;15.68;;;6.35;;
64907;SDS011;69061;52.236;5.188;2023-04-25T02:44:48;17.95;;;5.80;;
64907;SDS011;69061;52.236;5.188;2023-04-25T02:47:16;18.15;;;5.38;;
64907;SDS011;69061;52.236;5.188;2023-04-25T02:49:42;19.50;;;5.53;;
64907;SDS011;69061;52.236;5.188;2023-04-25T02:52:10;13.55;;;5.13;;
64907;SDS011;69061;52.236;5.188;2023-04-25T02:54:37;16.08;;;5.53;;
64907;SDS011;69061;52.236;5.188;2023-04-25T02:57:04;17.63;;;5.20;;
64907;SDS011;69061;52.236;5.188;2023-04-25T02:59:30;13.50;;;4.97;;
64907;SDS011;69061;52.236;5.188;2023-04-25T03:01:57;17.30;;;5.60;;
64907;SDS011;69061;52.236;5.188;2023-04-25T03:04:25;15.43;;;5.43;;
64907;SDS011;69061;52.236;5.188;2023-04-25T03:06:52;14.07;;;5.75;;
64907;SDS011;69061;52.236;5.188;2023-04-25T03:09:19;15.65;;;5.07;;
64907;SDS011;69061;52.236;5.188;2023-04-25T03:11:45;22.67;;;5.43;;
64907;SDS011;69061;52.236;5.188;2023-04-25T03:14:13;13.43;;;4.78;;
64907;SDS011;69061;52.236;5.188;2023-04-25T03:16:40;14.68;;;5.03;;
64907;SDS011;69061;52.236;5.188;2023-04-25T03:19:06;16.98;;;5.35;;
64907;SDS011;69061;52.236;5.188;2023-04-25T03:21:34;11.63;;;5.30;;
64907;SDS011;69061;52.236;5.188;2023-04-25T03:24:02;13.07;;;5.43;;
64907;SDS011;69061;52.236;5.188;2023-04-25T03:26:30;20.40;;;5.25;;
64907;SDS011;69061;52.236;5.188;2023-04-25T03:28:57;14.70;;;4.32;;
64907;SDS011;69061;52.236;5.188;2023-04-25T03:31:23;14.32;;;4.75;;
64907;SDS011;69061;52.236;5.188;2023-04-25T03:33:50;16.85;;;6.32;;
64907;SDS011;69061;52.236;5.188;2023-04-25T03:36:17;17.80;;;4.95;;
64907;SDS011;69061;52.236;5.188;2023-04-25T03:38:45;14.70;;;5.82;;
64907;SDS011;69061;52.236;5.188;2023-04-25T03:41:13;13.10;;;5.07;;
64907;SDS011;69061;52.236;5.188;2023-04-25T03:43:39;19.65;;;6.55;;
64907;SDS011;69061;52.236;5.188;2023-04-25T03:46:06;10.43;;;4.85;;
64907;SDS011;69061;52.236;5.188;2023-04-25T03:48:32;17.90;;;4.82;;
64907;SDS011;69061;52.236;5.188;2023-04-25T03:50:59;12.45;;;4.30;;
64907;SDS011;69061;52.236;5.188;2023-04-25T03:53:25;14.70;;;4.60;;
64907;SDS011;69061;52.236;5.188;2023-04-25T03:55:53;11.20;;;5.32;;
64907;SDS011;69061;52.236;5.188;2023-04-25T03:58:20;11.52;;;4.20;;
64907;SDS011;69061;52.236;5.188;2023-04-25T04:00:48;10.25;;;4.88;;
64907;SDS011;69061;52.236;5.188;2023-04-25T04:03:14;8.13;;;4.00;;
64907;SDS011;69061;52.236;5.188;2023-04-25T04:05:41;12.13;;;4.15;;
64907;SDS011;69061;52.236;5.188;2023-04-25T04:08:07;10.98;;;4.32;;
64907;SDS011;69061;52.236;5.188;2023-04-25T04:10:34;11.43;;;4.25;;
64907;SDS011;69061;52.236;5.188;2023-04-25T04:13:01;27.52;;;5.68;;
64907;SDS011;69061;52.236;5.188;2023-04-25T04:15:28;9.82;;;3.92;;
64907;SDS011;69061;52.236;5.188;2023-04-25T04:17:57;14.68;;;7.10;;
64907;SDS011;69061;52.236;5.188;2023-04-25T04:20:27;16.73;;;5.05;;
64907;SDS011;69061;52.236;5.188;2023-04-25T04:22:54;22.02;;;4.72;;
64907;SDS011;69061;52.236;5.188;2023-04-25T04:25:21;23.98;;;5.35;;
64907;SDS011;69061;52.236;5.188;2023-04-25T04:27:47;15.95;;;4.07;;
64907;SDS011;69061;52.236;5.188;2023-04-25T04:30:18;10.77;;;4.45;;
64907;SDS011;69061;52.236;5.188;2023-04-25T04:32:45;16.10;;;4.43;;
64907;SDS011;69061;52.236;5.188;2023-04-25T04:35:11;17.08;;;4.25;;
64907;SDS011;69061;52.236;5.188;2023-04-25T04:37:38;12.57;;;4.88;;
64907;SDS011;69061;52.236;5.188;2023-04-25T04:40:05;17.70;;;4.97;;
64907;SDS011;69061;52.236;5.188;2023-04-25T04:42:32;10.80;;;4.03;;
64907;SDS011;69061;52.236;5.188;2023-04-25T04:45:01;13.27;;;4.25;;
64907;SDS011;69061;52.236;5.188;2023-04-25T04:47:29;13.05;;;4.57;;
64907;SDS011;69061;52.236;5.188;2023-04-25T04:49:56;9.38;;;3.55;;
64907;SDS011;69061;52.236;5.188;2023-04-25T04:52:22;7.97;;;3.45;;
64907;SDS011;69061;52.236;5.188;2023-04-25T04:54:49;17.90;;;4.53;;
64907;SDS011;69061;52.236;5.188;2023-04-25T04:57:16;11.80;;;4.45;;
64907;SDS011;69061;52.236;5.188;2023-04-25T04:59:42;10.98;;;3.80;;
64907;SDS011;69061;52.236;5.188;2023-04-25T05:02:09;10.00;;;3.30;;
64907;SDS011;69061;52.236;5.188;2023-04-25T05:04:37;7.65;;;3.33;;
64907;SDS011;69061;52.236;5.188;2023-04-25T05:07:04;8.68;;;3.75;;
64907;SDS011;69061;52.236;5.188;2023-04-25T05:09:30;12.60;;;4.38;;
64907;SDS011;69061;52.236;5.188;2023-04-25T05:11:57;11.07;;;4.38;;
64907;SDS011;69061;52.236;5.188;2023-04-25T05:14:23;12.52;;;3.85;;
64907;SDS011;69061;52.236;5.188;2023-04-25T05:16:50;7.82;;;3.28;;
64907;SDS011;69061;52.236;5.188;2023-04-25T05:19:16;11.95;;;3.60;;
64907;SDS011;69061;52.236;5.188;2023-04-25T05:21:47;8.38;;;3.20;;
64907;SDS011;69061;52.236;5.188;2023-04-25T05:24:13;9.40;;;3.83;;
64907;SDS011;69061;52.236;5.188;2023-04-25T05:26:40;10.85;;;3.20;;
64907;SDS011;69061;52.236;5.188;2023-04-25T05:29:07;13.15;;;3.80;;
64907;SDS011;69061;52.236;5.188;2023-04-25T05:31:34;9.45;;;3.05;;
64907;SDS011;69061;52.236;5.188;2023-04-25T05:34:02;13.75;;;3.50;;
64907;SDS011;69061;52.236;5.188;2023-04-25T05:36:28;9.80;;;3.72;;
64907;SDS011;69061;52.236;5.188;2023-04-25T05:38:57;10.52;;;3.00;;
64907;SDS011;69061;52.236;5.188;2023-04-25T05:41:23;9.40;;;3.47;;
64907;SDS011;69061;52.236;5.188;2023-04-25T05:43:50;8.77;;;3.22;;
64907;SDS011;69061;52.236;5.188;2023-04-25T05:46:17;12.10;;;3.80;;
64907;SDS011;69061;52.236;5.188;2023-04-25T05:48:43;8.02;;;3.70;;
64907;SDS011;69061;52.236;5.188;2023-04-25T05:51:10;12.30;;;4.53;;
64907;SDS011;69061;52.236;5.188;2023-04-25T05:53:36;8.38;;;2.95;;
64907;SDS011;69061;52.236;5.188;2023-04-25T05:56:04;9.88;;;3.53;;
64907;SDS011;69061;52.236;5.188;2023-04-25T05:58:31;12.73;;;3.70;;
64907;SDS011;69061;52.236;5.188;2023-04-25T06:00:57;8.23;;;3.90;;
64907;SDS011;69061;52.236;5.188;2023-04-25T06:03:24;9.35;;;3.88;;
64907;SDS011;69061;52.236;5.188;2023-04-25T06:05:51;11.98;;;3.80;;
64907;SDS011;69061;52.236;5.188;2023-04-25T06:08:17;13.25;;;5.53;;
64907;SDS011;69061;52.236;5.188;2023-04-25T06:10:44;15.15;;;3.80;;
64907;SDS011;69061;52.236;5.188;2023-04-25T06:13:12;9.07;;;3.63;;
64907;SDS011;69061;52.236;5.188;2023-04-25T06:15:38;11.95;;;4.05;;
64907;SDS011;69061;52.236;5.188;2023-04-25T06:18:06;12.02;;;5.03;;
64907;SDS011;69061;52.236;5.188;2023-04-25T06:20:33;10.52;;;3.45;;
64907;SDS011;69061;52.236;5.188;2023-04-25T06:22:59;9.13;;;3.60;;
64907;SDS011;69061;52.236;5.188;2023-04-25T06:25:26;8.13;;;3.40;;
64907;SDS011;69061;52.236;5.188;2023-04-25T06:27:52;11.63;;;3.60;;
64907;SDS011;69061;52.236;5.188;2023-04-25T06:30:20;8.90;;;3.35;;
64907;SDS011;69061;52.236;5.188;2023-04-25T06:32:50;10.05;;;4.97;;
64907;SDS011;69061;52.236;5.188;2023-04-25T06:35:17;7.80;;;3.42;;
64907;SDS011;69061;52.236;5.188;2023-04-25T06:37:44;11.48;;;4.25;;
64907;SDS011;69061;52.236;5.188;2023-04-25T06:40:11;11.02;;;3.63;;
64907;SDS011;69061;52.236;5.188;2023-04-25T06:42:37;9.02;;;3.65;;
64907;SDS011;69061;52.236;5.188;2023-04-25T06:45:04;14.00;;;4.53;;
64907;SDS011;69061;52.236;5.188;2023-04-25T06:47:33;8.80;;;3.20;;
64907;SDS011;69061;52.236;5.188;2023-04-25T06:49:59;11.77;;;3.70;;
64907;SDS011;69061;52.236;5.188;2023-04-25T06:52:25;9.77;;;3.50;;
64907;SDS011;69061;52.236;5.188;2023-04-25T06:54:52;10.32;;;3.75;;
64907;SDS011;69061;52.236;5.188;2023-04-25T06:57:19;8.63;;;3.55;;
64907;SDS011;69061;52.236;5.188;2023-04-25T06:59:45;9.45;;;3.85;;
64907;SDS011;69061;52.236;5.188;2023-04-25T07:02:11;9.75;;;3.67;;
64907;SDS011;69061;52.236;5.188;2023-04-25T07:04:40;15.32;;;4.18;;
64907;SDS011;69061;52.236;5.188;2023-04-25T07:07:06;10.25;;;3.63;;
64907;SDS011;69061;52.236;5.188;2023-04-25T07:09:33;13.88;;;3.75;;
64907;SDS011;69061;52.236;5.188;2023-04-25T07:11:59;9.20;;;3.47;;
64907;SDS011;69061;52.236;5.188;2023-04-25T07:14:27;15.88;;;4.28;;
64907;SDS011;69061;52.236;5.188;2023-04-25T07:16:54;10.05;;;3.95;;
64907;SDS011;69061;52.236;5.188;2023-04-25T07:19:20;9.65;;;4.45;;
64907;SDS011;69061;52.236;5.188;2023-04-25T07:21:50;10.38;;;3.65;;
64907;SDS011;69061;52.236;5.188;2023-04-25T07:24:16;12.35;;;4.85;;
64907;SDS011;69061;52.236;5.188;2023-04-25T07:26:43;10.10;;;3.95;;
64907;SDS011;69061;52.236;5.188;2023-04-25T07:29:10;12.38;;;3.67;;
64907;SDS011;69061;52.236;5.188;2023-04-25T07:31:37;11.90;;;4.15;;
64907;SDS011;69061;52.236;5.188;2023-04-25T07:34:04;11.50;;;5.22;;
64907;SDS011;69061;52.236;5.188;2023-04-25T07:36:31;8.65;;;3.25;;
64907;SDS011;69061;52.236;5.188;2023-04-25T07:38:59;16.08;;;4.18;;
64907;SDS011;69061;52.236;5.188;2023-04-25T07:41:25;9.82;;;3.25;;
64907;SDS011;69061;52.236;5.188;2023-04-25T07:43:52;12.35;;;3.30;;
64907;SDS011;69061;52.236;5.188;2023-04-25T07:46:18;10.05;;;3.55;;
64907;SDS011;69061;52.236;5.188;2023-04-25T07:48:44;10.90;;;3.22;;
64907;SDS011;69061;52.236;5.188;2023-04-25T07:51:11;7.70;;;2.95;;
64907;SDS011;69061;52.236;5.188;2023-04-25T07:53:37;9.93;;;3.38;;
64907;SDS011;69061;52.236;5.188;2023-04-25T07:56:06;10.32;;;3.00;;
64907;SDS011;69061;52.236;5.188;2023-04-25T07:58:33;8.52;;;2.83;;
64907;SDS011;69061;52.236;5.188;2023-04-25T08:00:59;9.85;;;3.42;;
64907;SDS011;69061;52.236;5.188;2023-04-25T08:03:26;7.32;;;2.95;;
64907;SDS011;69061;52.236;5.188;2023-04-25T08:05:52;8.10;;;4.75;;
64907;SDS011;69061;52.236;5.188;2023-04-25T08:08:19;7.20;;;3.28;;
64907;SDS011;69061;52.236;5.188;2023-04-25T08:10:45;12.48;;;3.90;;
64907;SDS011;69061;52.236;5.188;2023-04-25T08:13:14;7.35;;;3.80;;
64907;SDS011;69061;52.236;5.188;2023-04-25T08:15:41;15.95;;;3.80;;
64907;SDS011;69061;52.236;5.188;2023-04-25T08:18:07;11.43;;;3.60;;
64907;SDS011;69061;52.236;5.188;2023-04-25T08:20:34;9.85;;;3.22;;
64907;SDS011;69061;52.236;5.188;2023-04-25T08:23:00;10.70;;;3.42;;
64907;SDS011;69061;52.236;5.188;2023-04-25T08:25:27;8.82;;;3.40;;
64907;SDS011;69061;52.236;5.188;2023-04-25T08:27:53;14.45;;;6.10;;
64907;SDS011;69061;52.236;5.188;2023-04-25T08:30:22;10.02;;;3.88;;
64907;SDS011;69061;52.236;5.188;2023-04-25T08:32:49;12.75;;;3.50;;
64907;SDS011;69061;52.236;5.188;2023-04-25T08:35:15;9.05;;;3.15;;
64907;SDS011;69061;52.236;5.188;2023-04-25T08:37:42;10.07;;;3.30;;
64907;SDS011;69061;52.236;5.188;2023-04-25T08:40:09;4.15;;;2.60;;
64907;SDS011;69061;52.236;5.188;2023-04-25T08:42:40;9.10;;;3.30;;
64907;SDS011;69061;52.236;5.188;2023-04-25T08:45:08;6.53;;;2.90;;
64907;SDS011;69061;52.236;5.188;2023-04-25T08:47:37;8.65;;;2.78;;
64907;SDS011;69061;52.236;5.188;2023-04-25T08:50:04;8.10;;;2.90;;
64907;SDS011;69061;52.236;5.188;2023-04-25T08:52:39;8.10;;;3.85;;
64907;SDS011;69061;52.236;5.188;2023-04-25T08:55:10;6.43;;;2.70;;
64907;SDS011;69061;52.236;5.188;2023-04-25T08:57:39;4.43;;;2.53;;
64907;SDS011;69061;52.236;5.188;2023-04-25T09:00:08;7.72;;;2.67;;
64907;SDS011;69061;52.236;5.188;2023-04-25T09:02:37;6.63;;;2.85;;
64907;SDS011;69061;52.236;5.188;2023-04-25T09:05:06;8.95;;;2.92;;
64907;SDS011;69061;52.236;5.188;2023-04-25T09:07:34;7.28;;;3.20;;
64907;SDS011;69061;52.236;5.188;2023-04-25T09:10:01;7.72;;;2.92;;
64907;SDS011;69061;52.236;5.188;2023-04-25T09:12:28;9.50;;;3.13;;
64907;SDS011;69061;52.236;5.188;2023-04-25T09:15:03;6.95;;;3.20;;
64907;SDS011;69061;52.236;5.188;2023-04-25T09:17:30;8.80;;;3.25;;
64907;SDS011;69061;52.236;5.188;2023-04-25T09:20:06;6.78;;;2.60;;
64907;SDS011;69061;52.236;5.188;2023-04-25T09:22:34;14.98;;;3.35;;
64907;SDS011;69061;52.236;5.188;2023-04-25T09:25:02;6.30;;;2.58;;
64907;SDS011;69061;52.236;5.188;2023-04-25T09:27:31;9.52;;;2.67;;
64907;SDS011;69061;52.236;5.188;2023-04-25T09:29:58;7.05;;;2.78;;
64907;SDS011;69061;52.236;5.188;2023-04-25T09:32:25;5.32;;;2.25;;
64907;SDS011;69061;52.236;5.188;2023-04-25T09:34:52;6.38;;;2.47;;
64907;SDS011;69061;52.236;5.188;2023-04-25T09:37:22;7.95;;;2.88;;
64907;SDS011;69061;52.236;5.188;2023-04-25T09:39:50;6.82;;;2.60;;
64907;SDS011;69061;52.236;5.188;2023-04-25T09:42:21;10.85;;;2.97;;
64907;SDS011;69061;52.236;5.188;2023-04-25T09:44:48;14.55;;;2.85;;
64907;SDS011;69061;52.236;5.188;2023-04-25T09:47:18;8.45;;;2.88;;
64907;SDS011;69061;52.236;5.188;2023-04-25T09:49:46;9.15;;;2.75;;
64907;SDS011;69061;52.236;5.188;2023-04-25T09:52:13;4.63;;;2.47;;
64907;SDS011;69061;52.236;5.188;2023-04-25T09:54:43;6.00;;;2.80;;
64907;SDS011;69061;52.236;5.188;2023-04-25T09:57:11;6.38;;;2.55;;
64907;SDS011;69061;52.236;5.188;2023-04-25T09:59:38;4.72;;;2.33;;
64907;SDS011;69061;52.236;5.188;2023-04-25T10:02:08;7.97;;;3.13;;
64907;SDS011;69061;52.236;5.188;2023-04-25T10:04:36;8.05;;;3.00;;
64907;SDS011;69061;52.236;5.188;2023-04-25T10:07:05;6.53;;;2.83;;
64907;SDS011;69061;52.236;5.188;2023-04-25T10:09:33;5.50;;;3.45;;
64907;SDS011;69061;52.236;5.188;2023-04-25T10:12:03;8.98;;;3.17;;
64907;SDS011;69061;52.236;5.188;2023-04-25T10:14:31;6.50;;;2.58;;
64907;SDS011;69061;52.236;5.188;2023-04-25T10:16:58;7.35;;;3.10;;
64907;SDS011;69061;52.236;5.188;2023-04-25T10:19:25;5.75;;;2.92;;
64907;SDS011;69061;52.236;5.188;2023-04-25T10:21:52;9.30;;;2.80;;
64907;SDS011;69061;52.236;5.188;2023-04-25T10:24:24;8.35;;;2.85;;
64907;SDS011;69061;52.236;5.188;2023-04-25T10:26:51;5.13;;;2.60;;
64907;SDS011;69061;52.236;5.188;2023-04-25T10:29:23;5.32;;;2.45;;
64907;SDS011;69061;52.236;5.188;2023-04-25T10:31:50;6.28;;;2.80;;
64907;SDS011;69061;52.236;5.188;2023-04-25T10:34:17;7.70;;;2.70;;
64907;SDS011;69061;52.236;5.188;2023-04-25T10:36:48;6.30;;;2.60;;
64907;SDS011;69061;52.236;5.188;2023-04-25T10:39:23;7.50;;;2.53;;
64907;SDS011;69061;52.236;5.188;2023-04-25T10:41:55;4.70;;;2.20;;
64907;SDS011;69061;52.236;5.188;2023-04-25T10:44:24;6.05;;;2.67;;
64907;SDS011;69061;52.236;5.188;2023-04-25T10:46:54;7.47;;;2.90;;
64907;SDS011;69061;52.236;5.188;2023-04-25T10:49:31;6.82;;;2.83;;
64907;SDS011;69061;52.236;5.188;2023-04-25T10:52:10;7.22;;;3.45;;
64907;SDS011;69061;52.236;5.188;2023-04-25T10:54:40;7.82;;;3.13;;
64907;SDS011;69061;52.236;5.188;2023-04-25T10:57:07;5.68;;;2.70;;
64907;SDS011;69061;52.236;5.188;2023-04-25T10:59:35;5.88;;;2.45;;
64907;SDS011;69061;52.236;5.188;2023-04-25T11:02:01;8.70;;;2.88;;
64907;SDS011;69061;52.236;5.188;2023-04-25T11:04:38;6.05;;;2.65;;
64907;SDS011;69061;52.236;5.188;2023-04-25T11:07:09;6.57;;;3.00;;
64907;SDS011;69061;52.236;5.188;2023-04-25T11:09:41;4.88;;;2.97;;
64907;SDS011;69061;52.236;5.188;2023-04-25T11:12:10;5.15;;;2.63;;
64907;SDS011;69061;52.236;5.188;2023-04-25T11:14:39;5.28;;;2.20;;
64907;SDS011;69061;52.236;5.188;2023-04-25T11:17:06;4.10;;;2.33;;
64907;SDS011;69061;52.236;5.188;2023-04-25T11:19:32;9.75;;;2.67;;
64907;SDS011;69061;52.236;5.188;2023-04-25T11:22:00;7.07;;;2.88;;
64907;SDS011;69061;52.236;5.188;2023-04-25T11:24:27;6.78;;;2.90;;
64907;SDS011;69061;52.236;5.188;2023-04-25T11:27:09;7.47;;;2.67;;
64907;SDS011;69061;52.236;5.188;2023-04-25T11:29:36;5.25;;;2.30;;
64907;SDS011;69061;52.236;5.188;2023-04-25T11:32:02;6.18;;;2.83;;
64907;SDS011;69061;52.236;5.188;2023-04-25T11:34:30;11.38;;;2.92;;
64907;SDS011;69061;52.236;5.188;2023-04-25T11:36:58;7.97;;;2.83;;
64907;SDS011;69061;52.236;5.188;2023-04-25T11:39:24;5.47;;;2.42;;
64907;SDS011;69061;52.236;5.188;2023-04-25T11:41:51;7.43;;;3.45;;
64907;SDS011;69061;52.236;5.188;2023-04-25T11:44:20;7.80;;;2.60;;
64907;SDS011;69061;52.236;5.188;2023-04-25T11:46:47;6.85;;;3.00;;
64907;SDS011;69061;52.236;5.188;2023-04-25T11:49:14;6.45;;;2.90;;
64907;SDS011;69061;52.236;5.188;2023-04-25T11:51:43;5.55;;;2.70;;
64907;SDS011;69061;52.236;5.188;2023-04-25T11:54:11;7.20;;;2.47;;
64907;SDS011;69061;52.236;5.188;2023-04-25T11:56:40;7.95;;;2.72;;
64907;SDS011;69061;52.236;5.188;2023-04-25T11:59:07;6.68;;;3.08;;
64907;SDS011;69061;52.236;5.188;2023-04-25T12:01:36;10.20;;;3.28;;
64907;SDS011;69061;52.236;5.188;2023-04-25T12:04:11;12.65;;;3.00;;
64907;SDS011;69061;52.236;5.188;2023-04-25T12:06:38;11.95;;;3.85;;
64907;SDS011;69061;52.236;5.188;2023-04-25T12:09:07;9.45;;;3.03;;
64907;SDS011;69061;52.236;5.188;2023-04-25T12:11:40;10.43;;;3.28;;
64907;SDS011;69061;52.236;5.188;2023-04-25T12:14:07;9.70;;;3.85;;
64907;SDS011;69061;52.236;5.188;2023-04-25T12:16:41;7.78;;;2.47;;
64907;SDS011;69061;52.236;5.188;2023-04-25T12:19:09;5.60;;;2.33;;
64907;SDS011;69061;52.236;5.188;2023-04-25T12:21:39;6.40;;;2.42;;
64907;SDS011;69061;52.236;5.188;2023-04-25T12:24:15;5.90;;;2.60;;
64907;SDS011;69061;52.236;5.188;2023-04-25T12:26:50;9.90;;;3.15;;
64907;SDS011;69061;52.236;5.188;2023-04-25T12:29:19;5.32;;;2.90;;
64907;SDS011;69061;52.236;5.188;2023-04-25T12:31:48;8.45;;;2.85;;
64907;SDS011;69061;52.236;5.188;2023-04-25T12:34:18;5.15;;;2.47;;
64907;SDS011;69061;52.236;5.188;2023-04-25T12:36:45;4.05;;;2.92;;
64907;SDS011;69061;52.236;5.188;2023-04-25T12:39:15;9.50;;;2.88;;
64907;SDS011;69061;52.236;5.188;2023-04-25T12:41:42;7.35;;;3.05;;
64907;SDS011;69061;52.236;5.188;2023-04-25T12:44:09;7.05;;;2.83;;
64907;SDS011;69061;52.236;5.188;2023-04-25T12:46:36;4.95;;;2.50;;
64907;SDS011;69061;52.236;5.188;2023-04-25T12:49:05;5.47;;;2.40;;
64907;SDS011;69061;52.236;5.188;2023-04-25T12:51:32;4.72;;;2.33;;
64907;SDS011;69061;52.236;5.188;2023-04-25T12:53:59;6.88;;;2.50;;
64907;SDS011;69061;52.236;5.188;2023-04-25T12:56:25;8.27;;;2.70;;
64907;SDS011;69061;52.236;5.188;2023-04-25T12:58:52;5.63;;;2.45;;
64907;SDS011;69061;52.236;5.188;2023-04-25T13:01:19;5.90;;;2.90;;
64907;SDS011;69061;52.236;5.188;2023-04-25T13:03:45;6.78;;;2.80;;
64907;SDS011;69061;52.236;5.188;2023-04-25T13:06:14;6.20;;;2.55;;
64907;SDS011;69061;52.236;5.188;2023-04-25T13:08:41;5.97;;;2.38;;
64907;SDS011;69061;52.236;5.188;2023-04-25T13:11:07;8.80;;;2.95;;
64907;SDS011;69061;52.236;5.188;2023-04-25T13:13:34;6.30;;;2.63;;
64907;SDS011;69061;52.236;5.188;2023-04-25T13:16:01;9.68;;;3.08;;
64907;SDS011;69061;52.236;5.188;2023-04-25T13:18:28;7.30;;;2.97;;
64907;SDS011;69061;52.236;5.188;2023-04-25T13:20:55;8.13;;;3.03;;
64907;SDS011;69061;52.236;5.188;2023-04-25T13:23:26;6.93;;;3.08;;
64907;SDS011;69061;52.236;5.188;2023-04-25T13:25:54;6.50;;;2.75;;
64907;SDS011;69061;52.236;5.188;2023-04-25T13:28:22;8.10;;;2.97;;
64907;SDS011;69061;52.236;5.188;2023-04-25T13:30:49;10.23;;;3.20;;
64907;SDS011;69061;52.236;5.188;2023-04-25T13:33:16;6.18;;;3.15;;
64907;SDS011;69061;52.236;5.188;2023-04-25T13:35:43;8.85;;;2.92;;
64907;SDS011;69061;52.236;5.188;2023-04-25T13:38:11;5.00;;;2.60;;
64907;SDS011;69061;52.236;5.188;2023-04-25T13:40:39;7.78;;;2.97;;
64907;SDS011;69061;52.236;5.188;2023-04-25T13:43:06;8.00;;;2.80;;
64907;SDS011;69061;52.236;5.188;2023-04-25T13:45:33;8.20;;;3.03;;
64907;SDS011;69061;52.236;5.188;2023-04-25T13:47:59;6.57;;;3.03;;
64907;SDS011;69061;52.236;5.188;2023-04-25T13:50:27;6.88;;;2.80;;
64907;SDS011;69061;52.236;5.188;2023-04-25T13:52:54;7.57;;;2.90;;
64907;SDS011;69061;52.236;5.188;2023-04-25T13:55:20;7.40;;;2.97;;
64907;SDS011;69061;52.236;5.188;2023-04-25T13:57:48;10.82;;;3.38;;
64907;SDS011;69061;52.236;5.188;2023-04-25T14:00:15;8.05;;;3.15;;
64907;SDS011;69061;52.236;5.188;2023-04-25T14:02:42;9.40;;;3.78;;
64907;SDS011;69061;52.236;5.188;2023-04-25T14:05:09;8.48;;;2.70;;
64907;SDS011;69061;52.236;5.188;2023-04-25T14:07:35;7.82;;;2.80;;
64907;SDS011;69061;52.236;5.188;2023-04-25T14:10:02;6.45;;;2.80;;
64907;SDS011;69061;52.236;5.188;2023-04-25T14:12:30;11.00;;;3.08;;
64907;SDS011;69061;52.236;5.188;2023-04-25T14:14:58;5.72;;;3.00;;
64907;SDS011;69061;52.236;5.188;2023-04-25T14:17:25;7.05;;;2.63;;
64907;SDS011;69061;52.236;5.188;2023-04-25T14:19:51;7.88;;;3.28;;
64907;SDS011;69061;52.236;5.188;2023-04-25T14:22:18;9.90;;;3.13;;
64907;SDS011;69061;52.236;5.188;2023-04-25T14:24:45;14.10;;;3.45;;
64907;SDS011;69061;52.236;5.188;2023-04-25T14:27:11;8.65;;;3.05;;
64907;SDS011;69061;52.236;5.188;2023-04-25T14:29:38;9.57;;;3.05;;
64907;SDS011;69061;52.236;5.188;2023-04-25T14:32:05;5.38;;;2.67;;
64907;SDS011;69061;52.236;5.188;2023-04-25T14:34:32;5.40;;;2.53;;
64907;SDS011;69061;52.236;5.188;2023-04-25T14:36:59;5.32;;;2.70;;
64907;SDS011;69061;52.236;5.188;2023-04-25T14:39:26;6.35;;;2.63;;
64907;SDS011;69061;52.236;5.188;2023-04-25T14:41:52;7.07;;;2.60;;